Language selection

Features

My Weather Profile Weather Topics  | 

Pacific - South Coast: Past 24 Hour Conditions

 

South Hecate Strait - 46185

12:00 AM PST 21 November 2019Buoy position: 52.43N 129.79W
Disclaimer

This table is a summary of hourly weather conditions for the past 24 hours.
Please note that these observations might not always be representative of weather conditions over their associated marine area.

Date / Time
(PST)
Wind(knots) Wave height(m) Wave period(s) Pressure(kPa) Air tempC) Water tempC)
21 November 2019
0:00 ESE 17 gust 19 0.8 14.0 101.4 9 10
20 November 2019
23:00 SE 16 gust 17 0.8 14.0 101.5 9 10
22:00 SSE 12 gust 16 0.7 15.0 101.6 9 10
21:00 SSE 12 gust 13 0.7 15.0 101.6 9 10
20:00 SSE 10 gust 12 0.7 10.0 101.7 9 10
19:00 SSE 10 gust 12 0.7 10.0 101.7 9 10
18:00 SSE 8 gust 10 0.8 9.0 101.8 9 10
17:00 SE 8 gust 10 0.8 10.0 101.9 9 10
16:00 SSE 6 gust 8 0.8 10.0 101.9 9 10
15:00 SSE 8 gust 8 0.8 11.0 102.0 9 10
14:00 SE 8 gust 10 0.7 10.0 102.0 9 10
13:00 SE 6 gust 8 0.8 11.0 102.2 10 10
12:00 calm 0.9 10.0 102.2 11 10
11:00 NNE 2 gust 4 0.8 10.0 102.2 11 10
10:00 calm 0.8 10.0 102.3 9 10
9:00 ENE 2 gust 4 0.8 11.0 102.3 9 10
8:00 calm 0.8 11.0 102.3 9 10
7:00 NNW 4 gust 6 1.0 11.0 102.4 9 10
6:00 NW 6 gust 8 1.1 10.0 102.3 9 10
5:00 N 4 gust 6 1.2 10.0 102.4 8 10
4:00 NNE 6 gust 10 1.3 10.0 102.4 8 10
3:00 N 12 gust 16 1.3 11.0 102.4 9 10
2:00 NNW 13 gust 16 1.5 11.0 102.4 9 10
1:00 NNW 13 gust 16 1.4 10.0 102.5 9 10
0:00 NNW 13 gust 17 1.4 5.0 102.5 9 10

Zoom-in to make a selection

Map of Pacific - South Coast marine weather areas South Nomad - 46036 Sentry Shoal - 46131 South Brooks - 46132 Halibut Bank - 46146 South Moresby - 46147 South Hecate Strait - 46185 West Sea Otter - 46204 La Perouse Bank - 46206 East Dellwood - 46207 Discovery Island Esquimalt Harbour Kelp Reefs Malahat Race Rocks Lightstation Saturna Island Sheringham Point University of Victoria Victoria Gonzales Victoria Int'l Airport Ballenas Islands Campbell River Airport Comox Airport Entrance Island Fanny Island Nanaimo Airport Port Hardy Airport Sisters Islets Estevan Point Port Alberni Sartine Island Solander Island Tofino Airport Grief Point Howe Sound - Pam Rocks Powell River Airport Sechelt Squamish Airport Cape St.James Bella Bella Airport Bella Coola Airport Cathedral Point Herbert Island Point Atkinson Sand Heads Lightstation Tsawwassen Ferry Terminal Vancouver Int'l Airport Vancouver Harbour West Vancouver
Legend:
buoy Buoy
land station Land Station

Pacific - South Coast Area

Another Region

What we are doing

Date modified: